Latest Weather Observations for Lake Grace

IDW60801

Issued at 4:05 am WST Tuesday 23 September 2014 (issued every 30 minutes, with the page automatically refreshed every 10 minutes)

About weather observations | Map of weather stations | Latest weather observations for WA | Other Formats
Station Details ID: 010911 Name: LAKE GRACE Lat: -33.10 Lon: 118.46 Height: 286.0 m
Data from the previous 72 hours. | See also: Recent months at Lake Grace
Date/Time
WST
Temp
°C
App
Temp
°C
Dew
Point
Rel
Hum
%
Delta-T
°C
Wind Press
QNH
hPa
Press
MSL
hPa
Rain
since 9 am
mm
Dir
 
Spd
km/h
Gust
km/h
Spd
kts
Gust
kts
23/04:00am 5.6 3.2 4.1 90 0.6 SW 6 9 3 5 1024.0 1024.0 0.0
23/03:30am 5.3 3.2 3.8 90 0.6 SW 4 7 2 4 1023.8 1023.8 0.0
23/03:00am 5.4 3.7 3.9 90 0.6 SSW 2 7 1 4 1023.8 1023.8 0.0
23/02:30am 5.4 2.9 3.7 89 0.7 SSW 6 7 3 4 1024.0 1024.0 0.0
23/02:00am 5.8 3.4 4.1 89 0.7 WSW 6 9 3 5 1024.0 1024.0 0.0
23/01:30am 5.6 3.5 3.9 89 0.7 WSW 4 11 2 6 1024.4 1024.3 0.0
23/01:00am 6.1 3.6 3.8 85 1.0 SSW 6 7 3 4 1024.4 1024.3 0.0
23/12:30am 6.4 3.8 4.4 87 0.9 SW 7 11 4 6 1024.5 1024.4 0.0
23/12:00am 6.0 4.7 4.0 87 0.9 SW 0 0 0 0 1024.7 1024.6 0.0
 
Date/Time
WST
Temp
°C
App
Temp
°C
Dew
Point
Rel
Hum
%
Delta-T
°C
Wind Press
QNH
hPa
Press
MSL
hPa
Rain
since 9 am
mm
Dir
 
Spd
km/h
Gust
km/h
Spd
kts
Gust
kts
22/11:30pm 6.4 5.1 4.2 86 1.0 CALM 0 0 0 0 1024.7 1024.6 0.0
22/11:00pm 6.6 4.6 4.3 85 1.0 SSE 4 7 2 4 1024.8 1024.7 0.0
22/10:30pm 7.2 4.6 4.3 82 1.3 S 7 9 4 5 1025.2 1025.1 0.0
22/10:00pm 7.9 5.4 4.7 80 1.4 S 7 9 4 5 1025.3 1025.2 0.0
22/09:30pm 8.6 5.3 4.6 76 1.8 S 11 17 6 9 1025.4 1025.3 0.0
22/09:00pm 8.4 5.4 4.2 75 1.9 S 9 13 5 7 1025.2 1025.1 0.0
22/08:30pm 8.8 5.8 4.0 72 2.1 S 9 11 5 6 1024.8 1024.7 0.0
22/08:00pm 9.0 5.9 3.8 70 2.3 S 9 11 5 6 1024.6 1024.5 0.0
22/07:30pm 9.7 6.6 3.7 66 2.7 S 9 15 5 8 1023.9 1023.9 0.0
22/07:00pm 10.3 7.1 3.3 62 3.1 S 9 15 5 8 1023.5 1023.5 0.0
22/06:30pm 11.6 7.3 3.4 57 3.7 S 15 22 8 12 1022.8 1022.8 0.0
22/06:00pm 12.5 7.9 3.5 54 4.1 SSW 17 24 9 13 1022.4 1022.3 0.0
22/05:30pm 13.0 8.5 4.2 55 4.1 SSW 17 28 9 15 1021.9 1021.8 0.0
22/05:00pm 12.1 7.7 4.8 61 3.4 S 17 24 9 13 1021.5 1021.4 0.0
22/04:30pm 13.2 8.4 4.4 55 4.1 SSW 19 30 10 16 1021.0 1020.9 0.0
22/04:00pm 13.5 7.9 5.2 57 3.9 SSW 24 39 13 21 1020.7 1020.6 0.0
22/03:30pm 12.7 7.2 6.1 64 3.2 S 24 41 13 22 1020.2 1020.2 0.0
22/03:00pm 14.8 9.6 3.6 47 5.2 SSW 20 32 11 17 1019.7 1019.7 0.0
22/02:30pm 13.6 7.8 4.2 53 4.4 SSW 24 35 13 19 1019.6 1019.5 0.0
22/02:00pm 14.3 8.4 4.0 50 4.8 S 24 39 13 21 1019.4 1019.3 0.0
22/01:30pm 14.7 9.9 4.7 51 4.7 S 19 30 10 16 1019.3 1019.2 0.0
22/01:00pm 12.3 6.4 5.9 65 3.0 S 26 39 14 21 1019.5 1019.4 0.0
22/12:30pm 14.6 9.0 3.7 48 5.0 SSW 22 39 12 21 1019.3 1019.2 0.0
22/12:00pm 13.4 7.6 4.3 54 4.2 S 24 37 13 20 1019.3 1019.2 0.0
22/11:30am 13.4 7.4 5.3 58 3.8 SSW 26 48 14 26 1019.2 1019.1 0.0
22/11:22am 13.0 6.6 5.2 59 3.7 S 28 48 15 26 1019.3 1019.2 0.0
22/11:00am 11.7 6.6 7.6 76 2.0 SSW 24 37 13 20 1019.4 1019.3 0.0
22/10:30am 11.5 6.3 7.2 75 2.1 S 24 43 13 23 1019.6 1019.5 0.0
22/10:00am 12.2 7.8 7.5 73 2.3 S 20 32 11 17 1019.4 1019.3 0.0
22/09:30am 9.8 4.7 7.7 87 1.0 SSW 24 39 13 21 1019.3 1019.2 0.0
22/09:00am 11.0 6.2 7.5 79 1.7 SSW 22 41 12 22 1019.0 1018.9 15.4
22/08:30am 10.7 6.4 7.9 83 1.4 SSW 20 33 11 18 1018.6 1018.5 15.4
22/08:00am 9.9 6.1 7.7 86 1.1 SSW 17 28 9 15 1018.3 1018.2 15.4
22/07:30am 9.6 5.5 7.7 88 0.9 SSW 19 30 10 16 1017.7 1017.6 15.4
22/07:00am 9.2 5.0 7.5 89 0.8 SSW 19 28 10 15 1017.0 1016.9 15.4
22/06:30am 9.2 4.8 7.5 89 0.8 SSW 20 28 11 15 1016.5 1016.4 15.4
22/06:00am 9.1 4.7 7.4 89 0.8 SW 20 32 11 17 1016.0 1015.9 15.4
22/05:30am 9.4 5.0 7.3 87 1.0 SSW 20 30 11 16 1015.3 1015.2 15.4
22/05:00am 9.3 5.1 7.4 88 0.9 SSW 19 28 10 15 1014.7 1014.6 15.4
22/04:30am 9.3 5.4 7.3 87 1.0 SSW 17 28 9 15 1014.1 1014.0 15.4
22/04:00am 9.2 5.7 7.2 87 1.0 SSW 15 20 8 11 1013.6 1013.4 15.4
22/03:30am 9.3 5.8 7.3 87 1.0 SSW 15 24 8 13 1013.3 1013.1 15.4
22/03:00am 9.4 6.0 7.7 89 0.8 S 15 24 8 13 1013.0 1012.9 15.4
22/02:30am 9.3 5.6 7.9 91 0.7 S 17 24 9 13 1012.4 1012.3 15.4
22/02:00am 8.7 4.3 7.3 91 0.7 S 20 33 11 18 1012.6 1012.5 15.4
22/01:30am 9.1 4.5 8.0 93 0.5 S 22 35 12 19 1012.7 1012.6 13.6
22/01:00am 9.2 4.2 8.1 93 0.5 S 24 39 13 21 1012.2 1012.1 12.6
22/12:30am 9.3 3.9 8.2 93 0.5 S 26 43 14 23 1012.3 1012.2 11.2
22/12:00am 10.0 5.2 8.9 93 0.6 S 24 39 13 21 1012.1 1012.0 10.2
 
Date/Time
WST
Temp
°C
App
Temp
°C
Dew
Point
Rel
Hum
%
Delta-T
°C
Wind Press
QNH
hPa
Press
MSL
hPa
Rain
since 9 am
mm
Dir
 
Spd
km/h
Gust
km/h
Spd
kts
Gust
kts
21/11:30pm 10.2 5.8 9.1 93 0.6 S 22 39 12 21 1011.6 1011.5 9.8
21/11:00pm 10.2 6.2 9.1 93 0.6 S 20 33 11 18 1011.4 1011.3 9.2
21/10:30pm 12.1 11.2 10.8 92 0.7 W 6 9 3 5 1011.7 1011.6 5.4
21/10:00pm 12.2 11.2 10.9 92 0.7 NW 7 11 4 6 1011.5 1011.4 4.2
21/09:30pm 12.1 11.0 10.8 92 0.7 W 7 11 4 6 1011.2 1011.1 4.2
21/09:00pm 12.2 10.0 10.8 91 0.7 W 13 22 7 12 1011.5 1011.4 3.8
21/08:30pm 12.4 11.1 11.1 92 0.7 WNW 9 15 5 8 1011.4 1011.3 3.8
21/08:00pm 12.3 12.3 11.0 92 0.7 SSW 2 6 1 3 1010.8 1010.7 3.8
21/07:30pm 12.3 11.5 11.0 92 0.7 WNW 6 9 3 5 1010.6 1010.4 3.6
21/07:00pm 12.2 11.7 10.8 91 0.7 ENE 4 6 2 3 1009.6 1009.4 2.8
21/06:30pm 12.1 11.9 10.5 90 0.8 WNW 2 7 1 4 1009.8 1009.6 2.6
21/06:00pm 12.3 10.5 10.7 90 0.8 W 11 20 6 11 1009.2 1009.1 2.2
21/05:30pm 13.0 10.5 10.9 87 1.1 W 15 24 8 13 1009.4 1009.3 0.8
21/05:00pm 13.9 10.0 9.3 74 2.4 W 20 32 11 17 1008.8 1008.7 0.0
21/04:30pm 14.3 9.6 9.3 72 2.6 WSW 24 41 13 22 1007.9 1007.8 0.0
21/04:00pm 14.7 8.5 9.3 70 2.8 WSW 32 54 17 29 1006.9 1006.7 0.0
21/03:30pm 15.5 9.1 9.2 66 3.3 WSW 33 52 18 28 1006.7 1006.5 0.0
21/03:00pm 16.4 9.2 9.3 63 3.7 WSW 37 63 20 34 1005.4 1005.3 0.0
21/02:30pm 17.7 9.8 11.5 67 3.4 WSW 44 72 24 39 1004.6 1004.4 0.0
21/02:20pm 19.6 10.8 10.9 57 4.8 WSW 48 72 26 39 1003.5 1003.3 0.0
21/02:17pm 21.6 10.2 10.4 49 6.2 W 61 80 33 43 1003.2 1003.0 0.0
21/02:16pm 23.1 14.1 10.2 44 7.2 NNW 48 78 26 42 1003.1 1002.9 0.0
21/02:00pm 28.6 18.5 3.5 20 12.8 NNW 46 78 25 42 1002.0 1001.9 0.0
21/01:30pm 28.9 18.3 3.0 19 13.1 NNW 48 70 26 38 1002.0 1001.9 0.0
21/01:00pm 28.6 17.1 4.2 21 12.6 NNW 54 80 29 43 1002.0 1001.9 0.0
21/12:30pm 28.6 17.3 5.5 23 12.2 N 54 80 29 43 1002.4 1002.2 0.0
21/12:05pm 28.1 16.4 6.2 25 11.7 N 57 76 31 41 1003.1 1002.9 0.0
21/12:00pm 27.9 15.8 6.1 25 11.6 N 59 76 32 41 1003.2 1003.0 0.0
21/11:48am 27.3 14.1 6.1 26 11.2 N 65 83 35 45 1003.4 1003.2 0.0
21/11:30am 27.7 18.4 5.9 25 11.5 N 44 74 24 40 1004.1 1003.9 0.0
21/11:00am 26.6 16.8 5.5 26 11.0 N 46 74 25 40 1004.6 1004.4 0.0
21/10:35am 26.4 17.6 5.4 26 10.9 N 41 63 22 34 1005.5 1005.4 0.0
21/10:30am 25.9 17.1 5.5 27 10.6 N 41 57 22 31 1005.9 1005.7 0.0
21/10:07am 25.1 16.2 5.3 28 10.2 N 41 59 22 32 1006.5 1006.3 0.0
21/10:00am 24.9 16.5 5.7 29 10.0 N 39 56 21 30 1006.6 1006.4 0.0
21/09:53am 24.0 16.7 5.4 30 9.5 N 33 56 18 30 1006.8 1006.6 0.0
21/09:30am 22.9 15.7 5.8 33 8.8 N 33 50 18 27 1007.4 1007.2 0.0
21/09:10am 22.3 14.3 5.7 34 8.5 N 37 56 20 30 1007.5 1007.3 0.0
21/09:00am 22.1 14.5 5.9 35 8.3 N 35 50 19 27 1007.9 1007.8 0.0
21/08:30am 21.3 14.5 6.8 39 7.5 N 32 46 17 25 1008.4 1008.3 0.0
21/08:00am 19.6 14.9 7.7 46 6.2 N 22 35 12 19 1008.8 1008.7 0.0
21/07:30am 17.4 12.6 7.5 52 5.1 N 22 33 12 18 1009.4 1009.3 0.0
21/07:00am 15.9 11.4 7.1 56 4.4 N 20 32 11 17 1009.6 1009.4 0.0
21/06:30am 14.1 10.6 7.2 63 3.4 N 15 22 8 12 1009.6 1009.4 0.0
21/06:00am 13.6 10.1 7.2 65 3.2 NNE 15 20 8 11 1009.7 1009.5 0.0
21/05:30am 13.4 10.3 7.2 66 3.1 NNE 13 20 7 11 1010.0 1009.8 0.0
21/05:00am 13.2 10.5 7.2 67 3.0 NNE 11 17 6 9 1010.1 1009.9 0.0
21/04:30am 13.8 10.7 7.3 65 3.2 N 13 20 7 11 1010.1 1009.9 0.0
21/04:00am 14.4 11.4 7.5 63 3.5 N 13 19 7 10 1010.2 1010.0 0.0
21/03:30am 15.2 11.8 7.5 60 3.9 NNE 15 28 8 15 1009.8 1009.6 0.0
21/03:00am 15.0 12.0 7.5 61 3.8 NNE 13 19 7 10 1010.0 1009.8 0.0
21/02:30am 15.3 11.9 7.6 60 3.9 NNE 15 20 8 11 1010.6 1010.4 0.0
21/02:00am 15.4 12.3 7.4 59 4.0 NNE 13 20 7 11 1010.9 1010.8 0.0
21/01:30am 15.5 12.8 7.5 59 4.0 NNE 11 13 6 7 1011.3 1011.2 0.0
21/01:00am 16.2 13.5 7.2 55 4.5 NNE 11 15 6 8 1011.7 1011.6 0.0
21/12:30am 16.0 13.3 7.2 56 4.4 NNE 11 15 6 8 1012.2 1012.1 0.0
21/12:00am 16.3 13.8 6.4 52 4.9 NNE 9 13 5 7 1012.6 1012.5 0.0
 
Date/Time
WST
Temp
°C
App
Temp
°C
Dew
Point
Rel
Hum
%
Delta-T
°C
Wind Press
QNH
hPa
Press
MSL
hPa
Rain
since 9 am
mm
Dir
 
Spd
km/h
Gust
km/h
Spd
kts
Gust
kts
20/11:30pm 18.2 14.1 6.4 46 5.9 N 17 20 9 11 1012.6 1012.5 0.0
20/11:00pm 18.7 15.0 6.5 45 6.2 N 15 20 8 11 1012.9 1012.8 0.0
20/10:30pm 20.1 16.6 5.4 38 7.3 NNW 13 17 7 9 1012.7 1012.6 0.0
20/10:00pm 21.5 17.4 6.2 37 7.8 NW 17 26 9 14 1012.9 1012.8 0.0
20/09:30pm 23.0 18.1 5.0 31 9.1 NNW 20 32 11 17 1012.4 1012.3 0.0
20/09:00pm 24.4 18.5 3.7 26 10.3 NE 24 33 13 18 1010.5 1010.3 0.0
20/08:30pm 24.3 18.4 4.1 27 10.1 NE 24 35 13 19 1010.9 1010.8 0.0
20/08:00pm 24.6 19.6 4.4 27 10.2 NE 20 30 11 16 1011.2 1011.1 0.0
20/07:30pm 25.0 20.6 4.7 27 10.3 NE 17 28 9 15 1011.5 1011.4 0.0
20/07:00pm 24.7 20.7 5.0 28 10.1 NE 15 20 8 11 1011.5 1011.4 0.0
20/06:30pm 25.3 21.3 5.0 27 10.4 NE 15 19 8 10 1011.5 1011.4 0.0
20/06:00pm 26.0 22.4 5.0 26 10.8 NNE 13 17 7 9 1011.5 1011.4 0.0
20/05:30pm 28.2 24.6 5.1 23 12.1 NNE 13 20 7 11 1011.6 1011.5 0.0
20/05:00pm 29.6 23.8 4.3 20 13.2 N 24 33 13 18 1011.6 1011.5 0.0
20/04:30pm 30.3 23.2 3.4 18 13.8 N 30 39 16 21 1012.0 1011.9 0.0
20/04:05pm 30.7 24.0 3.7 18 14.0 N 28 46 15 25 1012.1 1012.0 0.0
20/04:00pm 30.9 25.0 3.8 18 14.1 N 24 39 13 21 1012.1 1012.0 0.0
20/03:30pm 30.6 23.3 4.4 19 13.7 N 32 52 17 28 1012.4 1012.3 0.0
20/03:02pm 31.1 24.2 4.8 19 13.9 N 30 50 16 27 1012.8 1012.7 0.0
20/03:00pm 30.9 24.0 4.6 19 13.8 N 30 44 16 24 1012.8 1012.7 0.0
20/02:30pm 30.4 23.2 4.9 20 13.4 N 32 46 17 25 1013.0 1012.9 0.0
20/02:00pm 30.3 23.6 5.6 21 13.2 N 30 46 16 25 1013.6 1013.4 0.0
20/01:31pm 30.1 23.6 6.7 23 12.7 N 30 48 16 26 1014.2 1014.1 0.0
20/01:30pm 29.9 23.0 6.5 23 12.6 N 32 48 17 26 1014.1 1014.0 0.0
20/01:02pm 29.2 22.9 7.2 25 12.0 NNE 30 50 16 27 1014.6 1014.5 0.0
20/01:00pm 29.6 23.7 7.5 25 12.1 NNE 28 41 15 22 1014.7 1014.6 0.0
20/12:30pm 28.5 22.8 8.2 28 11.2 NNE 28 43 15 23 1015.2 1015.1 0.0
20/12:00pm 27.7 22.4 8.6 30 10.6 NNE 26 41 14 22 1015.9 1015.8 0.0
20/11:30am 26.9 22.2 9.3 33 9.8 NNE 24 39 13 21 1016.4 1016.3 0.0
20/11:00am 25.0 20.3 9.3 37 8.7 N 24 41 13 22 1017.1 1017.0 0.0
20/10:30am 23.6 19.6 10.3 43 7.4 NNE 22 33 12 18 1017.4 1017.3 0.0
20/10:00am 21.8 17.1 10.6 49 6.2 NNE 26 43 14 23 1018.1 1018.0 0.0
20/09:30am 20.3 15.9 10.4 53 5.4 NNE 24 39 13 21 1018.6 1018.5 0.0
20/09:00am 19.1 15.5 10.6 58 4.6 NNE 20 33 11 18 1019.0 1018.9 0.0
20/08:30am 17.4 13.6 11.2 67 3.4 NE 22 33 12 18 1019.3 1019.2 0.0
20/08:00am 15.7 13.4 11.7 77 2.2 NNE 15 24 8 13 1019.6 1019.5 0.0
20/07:30am 13.6 11.4 10.9 84 1.4 NE 13 22 7 12 1019.8 1019.8 0.0
20/07:00am 12.3 10.0 10.4 88 1.0 NE 13 20 7 11 1019.8 1019.8 0.0
20/06:30am 11.4 9.0 10.0 91 0.7 NE 13 15 7 8 1019.9 1019.9 0.0
20/06:00am 11.0 9.2 9.6 91 0.7 NE 9 17 5 9 1020.2 1020.2 0.0
20/05:30am 11.2 8.7 9.8 91 0.7 NE 13 20 7 11 1020.0 1020.0 0.0
20/05:00am 11.1 9.0 9.7 91 0.7 ENE 11 20 6 11 1019.9 1019.9 0.0
20/04:30am 11.0 8.5 9.6 91 0.7 ENE 13 17 7 9 1019.8 1019.8 0.0

Other Formats:

Comma delimited format used in spreadsheet applications
http://www.bom.gov.au/fwo/IDW60801/IDW60801.95637.axf

JavaScript Object Notation format (JSON) in row-major order
http://www.bom.gov.au/fwo/IDW60801/IDW60801.95637.json